Terminal Aerodrome Forecast
Issued by NWS

Home | Current Version | Previous Version | Text Only | Print | Product List | Glossary On
Versions: 1 2 3 4 5 6 7 8 9 10 11 12 13 14 15 16 17 18 19 20 21 22 23 24 25 26
845
FTAK31 PANC 220538
TAFAHO
TAF
PAHO 220538Z 2206/2306 26008KT P6SM -SHRA SCT035 OVC050
     FM220900 VRB05KT P6SM VCSH OVC050
     FM222100 25008KT P6SM SCT040 BKN080=

USA.gov is the U.S. government's official web portal to all federal, state and local government web resources and services.